sensor_id;sensor_type;location;lat;lon;timestamp;pressure;altitude;pressure_sealevel;temperature;humidity
54144;BME280;40050;47.324;18.792;2023-03-01T00:01:04;1014.43;;;8.00;54.34
54144;BME280;40050;47.324;18.792;2023-03-01T00:03:06;1014.45;;;7.99;54.29
54144;BME280;40050;47.324;18.792;2023-03-01T00:05:07;1014.45;;;7.99;54.20
54144;BME280;40050;47.324;18.792;2023-03-01T00:07:08;1014.45;;;7.97;54.27
54144;BME280;40050;47.324;18.792;2023-03-01T00:09:09;1014.40;;;7.96;54.48
54144;BME280;40050;47.324;18.792;2023-03-01T00:11:12;1014.45;;;7.96;54.55
54144;BME280;40050;47.324;18.792;2023-03-01T00:13:13;1014.36;;;7.90;54.54
54144;BME280;40050;47.324;18.792;2023-03-01T00:15:14;1014.51;;;7.96;54.47
54144;BME280;40050;47.324;18.792;2023-03-01T00:17:15;1014.54;;;7.96;54.52
54144;BME280;40050;47.324;18.792;2023-03-01T00:19:17;1014.56;;;7.96;54.47
54144;BME280;40050;47.324;18.792;2023-03-01T00:21:19;1014.52;;;7.95;54.64
54144;BME280;40050;47.324;18.792;2023-03-01T00:23:21;1014.56;;;7.94;54.41
54144;BME280;40050;47.324;18.792;2023-03-01T00:25:22;1014.57;;;7.91;54.22
54144;BME280;40050;47.324;18.792;2023-03-01T00:27:23;1014.50;;;7.86;54.39
54144;BME280;40050;47.324;18.792;2023-03-01T00:29:24;1014.41;;;7.80;54.56
54144;BME280;40050;47.324;18.792;2023-03-01T00:31:28;1014.56;;;7.89;54.53
54144;BME280;40050;47.324;18.792;2023-03-01T00:33:30;1014.56;;;7.88;54.50
54144;BME280;40050;47.324;18.792;2023-03-01T00:35:33;1014.54;;;7.89;54.34
54144;BME280;40050;47.324;18.792;2023-03-01T00:37:34;1014.55;;;7.91;54.03
54144;BME280;40050;47.324;18.792;2023-03-01T00:39:35;1014.54;;;7.93;53.86
54144;BME280;40050;47.324;18.792;2023-03-01T00:41:36;1014.40;;;7.86;54.12
54144;BME280;40050;47.324;18.792;2023-03-01T00:43:37;1014.48;;;7.94;54.21
54144;BME280;40050;47.324;18.792;2023-03-01T00:45:38;1014.48;;;7.94;54.21
54144;BME280;40050;47.324;18.792;2023-03-01T00:47:39;1014.42;;;7.90;54.17
54144;BME280;40050;47.324;18.792;2023-03-01T00:49:40;1014.34;;;7.90;54.14
54144;BME280;40050;47.324;18.792;2023-03-01T00:51:41;1014.34;;;7.92;54.70
54144;BME280;40050;47.324;18.792;2023-03-01T00:53:42;1014.27;;;7.89;55.59
54144;BME280;40050;47.324;18.792;2023-03-01T00:55:43;1014.27;;;7.91;56.05
54144;BME280;40050;47.324;18.792;2023-03-01T00:57:44;1014.25;;;7.90;56.45
54144;BME280;40050;47.324;18.792;2023-03-01T00:59:44;1014.28;;;7.89;56.80
54144;BME280;40050;47.324;18.792;2023-03-01T01:01:45;1014.29;;;7.84;56.44
54144;BME280;40050;47.324;18.792;2023-03-01T01:03:47;1014.31;;;7.85;55.96
54144;BME280;40050;47.324;18.792;2023-03-01T01:05:48;1014.33;;;7.83;55.89
54144;BME280;40050;47.324;18.792;2023-03-01T01:07:49;1014.30;;;7.81;56.23
54144;BME280;40050;47.324;18.792;2023-03-01T01:09:50;1014.27;;;7.80;56.16
54144;BME280;40050;47.324;18.792;2023-03-01T01:11:51;1014.25;;;7.79;56.16
54144;BME280;40050;47.324;18.792;2023-03-01T01:13:52;1014.24;;;7.79;56.15
54144;BME280;40050;47.324;18.792;2023-03-01T01:15:53;1014.23;;;7.79;55.99
54144;BME280;40050;47.324;18.792;2023-03-01T01:17:54;1014.15;;;7.73;56.01
54144;BME280;40050;47.324;18.792;2023-03-01T01:19:55;1014.15;;;7.75;55.88
54144;BME280;40050;47.324;18.792;2023-03-01T01:21:56;1014.12;;;7.77;55.69
54144;BME280;40050;47.324;18.792;2023-03-01T01:23:57;1014.11;;;7.77;55.54
54144;BME280;40050;47.324;18.792;2023-03-01T01:26:02;1014.10;;;7.78;55.39
54144;BME280;40050;47.324;18.792;2023-03-01T01:28:03;1014.10;;;7.78;55.26
54144;BME280;40050;47.324;18.792;2023-03-01T01:30:05;1014.03;;;7.77;55.34
54144;BME280;40050;47.324;18.792;2023-03-01T01:32:06;1014.05;;;7.80;55.36
54144;BME280;40050;47.324;18.792;2023-03-01T01:34:07;1014.00;;;7.79;55.55
54144;BME280;40050;47.324;18.792;2023-03-01T01:36:09;1013.91;;;7.78;55.67
54144;BME280;40050;47.324;18.792;2023-03-01T01:38:10;1013.84;;;7.78;55.71
54144;BME280;40050;47.324;18.792;2023-03-01T01:40:11;1013.88;;;7.81;55.97
54144;BME280;40050;47.324;18.792;2023-03-01T01:42:14;1013.83;;;7.82;55.96
54144;BME280;40050;47.324;18.792;2023-03-01T01:44:17;1013.85;;;7.83;56.03
54144;BME280;40050;47.324;18.792;2023-03-01T01:46:24;1013.83;;;7.83;56.20
54144;BME280;40050;47.324;18.792;2023-03-01T01:48:46;1013.83;;;7.82;56.22
54144;BME280;40050;47.324;18.792;2023-03-01T01:50:43;1013.79;;;7.78;56.11
54144;BME280;40050;47.324;18.792;2023-03-01T01:52:44;1013.73;;;7.75;56.31
54144;BME280;40050;47.324;18.792;2023-03-01T01:54:53;1013.73;;;7.73;56.45
54144;BME280;40050;47.324;18.792;2023-03-01T01:56:58;1013.73;;;7.71;56.48
54144;BME280;40050;47.324;18.792;2023-03-01T01:59:01;1013.67;;;7.75;56.73
54144;BME280;40050;47.324;18.792;2023-03-01T02:01:02;1013.68;;;7.73;56.68
54144;BME280;40050;47.324;18.792;2023-03-01T02:03:05;1013.65;;;7.70;56.61
54144;BME280;40050;47.324;18.792;2023-03-01T02:07:26;1013.66;;;7.69;56.48
54144;BME280;40050;47.324;18.792;2023-03-01T02:09:27;1013.69;;;7.69;56.39
54144;BME280;40050;47.324;18.792;2023-03-01T02:11:29;1013.72;;;7.69;56.32
54144;BME280;40050;47.324;18.792;2023-03-01T02:13:33;1013.68;;;7.69;56.73
54144;BME280;40050;47.324;18.792;2023-03-01T02:15:35;1013.66;;;7.68;57.14
54144;BME280;40050;47.324;18.792;2023-03-01T02:17:37;1013.68;;;7.71;57.18
54144;BME280;40050;47.324;18.792;2023-03-01T02:19:42;1013.67;;;7.70;56.83
54144;BME280;40050;47.324;18.792;2023-03-01T02:22:31;1013.73;;;7.70;56.87
54144;BME280;40050;47.324;18.792;2023-03-01T02:23:59;1013.48;;;7.58;57.07
54144;BME280;40050;47.324;18.792;2023-03-01T02:26:09;1013.67;;;7.72;57.30
54144;BME280;40050;47.324;18.792;2023-03-01T02:30:28;1013.58;;;7.62;57.51
54144;BME280;40050;47.324;18.792;2023-03-01T02:32:30;1013.58;;;7.62;57.80
54144;BME280;40050;47.324;18.792;2023-03-01T02:34:31;1013.53;;;7.62;57.64
54144;BME280;40050;47.324;18.792;2023-03-01T02:36:37;1013.54;;;7.63;57.71
54144;BME280;40050;47.324;18.792;2023-03-01T02:38:39;1013.56;;;7.58;57.60
54144;BME280;40050;47.324;18.792;2023-03-01T02:40:40;1013.47;;;7.55;57.67
54144;BME280;40050;47.324;18.792;2023-03-01T02:42:56;1013.45;;;7.53;57.66
54144;BME280;40050;47.324;18.792;2023-03-01T02:44:57;1013.52;;;7.53;57.78
54144;BME280;40050;47.324;18.792;2023-03-01T02:46:58;1013.53;;;7.52;57.78
54144;BME280;40050;47.324;18.792;2023-03-01T02:49:01;1013.48;;;7.51;58.19
54144;BME280;40050;47.324;18.792;2023-03-01T02:51:09;1013.52;;;7.53;58.38
54144;BME280;40050;47.324;18.792;2023-03-01T02:53:35;1013.51;;;7.57;58.29
54144;BME280;40050;47.324;18.792;2023-03-01T02:55:39;1013.49;;;7.57;58.08
54144;BME280;40050;47.324;18.792;2023-03-01T02:57:43;1013.41;;;7.54;58.25
54144;BME280;40050;47.324;18.792;2023-03-01T02:59:44;1013.45;;;7.57;58.51
54144;BME280;40050;47.324;18.792;2023-03-01T03:01:45;1013.47;;;7.55;58.59
54144;BME280;40050;47.324;18.792;2023-03-01T03:03:46;1013.43;;;7.54;58.96
54144;BME280;40050;47.324;18.792;2023-03-01T03:05:47;1013.37;;;7.51;59.05
54144;BME280;40050;47.324;18.792;2023-03-01T03:07:49;1013.37;;;7.53;59.07
54144;BME280;40050;47.324;18.792;2023-03-01T03:09:50;1013.33;;;7.54;58.92
54144;BME280;40050;47.324;18.792;2023-03-01T03:11:51;1013.36;;;7.54;58.82
54144;BME280;40050;47.324;18.792;2023-03-01T03:13:52;1013.35;;;7.55;59.01
54144;BME280;40050;47.324;18.792;2023-03-01T03:15:53;1013.29;;;7.56;58.96
54144;BME280;40050;47.324;18.792;2023-03-01T03:17:54;1013.27;;;7.57;58.99
54144;BME280;40050;47.324;18.792;2023-03-01T03:19:56;1013.26;;;7.58;59.02
54144;BME280;40050;47.324;18.792;2023-03-01T03:21:57;1013.25;;;7.60;58.96
54144;BME280;40050;47.324;18.792;2023-03-01T03:23:58;1013.26;;;7.61;59.05
54144;BME280;40050;47.324;18.792;2023-03-01T03:25:59;1013.27;;;7.61;59.20
54144;BME280;40050;47.324;18.792;2023-03-01T03:27:59;1013.22;;;7.60;59.21
54144;BME280;40050;47.324;18.792;2023-03-01T03:30:00;1013.26;;;7.58;59.17
54144;BME280;40050;47.324;18.792;2023-03-01T03:32:01;1013.21;;;7.58;59.30
54144;BME280;40050;47.324;18.792;2023-03-01T03:34:02;1013.18;;;7.59;59.37
54144;BME280;40050;47.324;18.792;2023-03-01T03:36:04;1013.16;;;7.60;59.47
54144;BME280;40050;47.324;18.792;2023-03-01T03:38:06;1013.15;;;7.61;59.54
54144;BME280;40050;47.324;18.792;2023-03-01T03:40:08;1013.07;;;7.58;59.64
54144;BME280;40050;47.324;18.792;2023-03-01T03:42:09;1013.10;;;7.61;59.69
54144;BME280;40050;47.324;18.792;2023-03-01T03:44:10;1013.09;;;7.59;59.75
54144;BME280;40050;47.324;18.792;2023-03-01T03:46:11;1013.14;;;7.61;59.70
54144;BME280;40050;47.324;18.792;2023-03-01T03:48:12;1013.13;;;7.62;59.90
54144;BME280;40050;47.324;18.792;2023-03-01T03:50:13;1013.14;;;7.63;59.98
54144;BME280;40050;47.324;18.792;2023-03-01T03:52:15;1013.10;;;7.62;60.07
54144;BME280;40050;47.324;18.792;2023-03-01T03:54:16;1013.11;;;7.65;59.85
54144;BME280;40050;47.324;18.792;2023-03-01T03:56:17;1013.04;;;7.64;59.87
54144;BME280;40050;47.324;18.792;2023-03-01T03:58:18;1013.02;;;7.65;59.95
54144;BME280;40050;47.324;18.792;2023-03-01T04:00:20;1013.05;;;7.63;60.04
54144;BME280;40050;47.324;18.792;2023-03-01T04:02:22;1012.86;;;7.50;60.19
54144;BME280;40050;47.324;18.792;2023-03-01T04:04:23;1012.69;;;7.37;60.32
54144;BME280;40050;47.324;18.792;2023-03-01T04:06:23;1013.10;;;7.60;60.36
54144;BME280;40050;47.324;18.792;2023-03-01T04:08:25;1013.12;;;7.60;60.37
54144;BME280;40050;47.324;18.792;2023-03-01T04:10:27;1013.11;;;7.59;60.34
54144;BME280;40050;47.324;18.792;2023-03-01T04:12:28;1013.04;;;7.55;60.35
54144;BME280;40050;47.324;18.792;2023-03-01T04:14:29;1012.99;;;7.51;60.35
54144;BME280;40050;47.324;18.792;2023-03-01T04:16:30;1013.04;;;7.53;60.28
54144;BME280;40050;47.324;18.792;2023-03-01T04:18:31;1013.05;;;7.54;60.33
54144;BME280;40050;47.324;18.792;2023-03-01T04:20:32;1012.65;;;7.32;60.18
54144;BME280;40050;47.324;18.792;2023-03-01T04:22:34;1012.90;;;7.44;60.26
54144;BME280;40050;47.324;18.792;2023-03-01T04:24:35;1013.02;;;7.53;60.42
54144;BME280;40050;47.324;18.792;2023-03-01T04:26:36;1013.07;;;7.52;60.37
54144;BME280;40050;47.324;18.792;2023-03-01T04:28:40;1013.09;;;7.54;60.31
54144;BME280;40050;47.324;18.792;2023-03-01T04:30:41;1013.05;;;7.49;60.25
54144;BME280;40050;47.324;18.792;2023-03-01T04:32:42;1013.17;;;7.55;60.23
54144;BME280;40050;47.324;18.792;2023-03-01T04:34:43;1013.19;;;7.56;60.28
54144;BME280;40050;47.324;18.792;2023-03-01T04:36:44;1013.17;;;7.53;60.21
54144;BME280;40050;47.324;18.792;2023-03-01T04:38:45;1013.20;;;7.56;60.24
54144;BME280;40050;47.324;18.792;2023-03-01T04:40:46;1013.17;;;7.54;60.43
54144;BME280;40050;47.324;18.792;2023-03-01T04:42:47;1013.17;;;7.53;60.56
54144;BME280;40050;47.324;18.792;2023-03-01T04:44:48;1013.14;;;7.52;60.66
54144;BME280;40050;47.324;18.792;2023-03-01T04:46:49;1013.15;;;7.50;60.77
54144;BME280;40050;47.324;18.792;2023-03-01T04:48:50;1013.13;;;7.50;60.87
54144;BME280;40050;47.324;18.792;2023-03-01T04:50:51;1013.12;;;7.48;60.93
54144;BME280;40050;47.324;18.792;2023-03-01T04:52:52;1013.05;;;7.46;60.95
54144;BME280;40050;47.324;18.792;2023-03-01T04:54:53;1013.01;;;7.45;60.77
54144;BME280;40050;47.324;18.792;2023-03-01T04:56:54;1013.10;;;7.47;60.55
54144;BME280;40050;47.324;18.792;2023-03-01T04:58:55;1013.04;;;7.45;60.56
54144;BME280;40050;47.324;18.792;2023-03-01T05:00:56;1013.02;;;7.45;60.52
54144;BME280;40050;47.324;18.792;2023-03-01T05:02:58;1012.98;;;7.46;60.50
54144;BME280;40050;47.324;18.792;2023-03-01T05:04:59;1013.07;;;7.48;60.48
54144;BME280;40050;47.324;18.792;2023-03-01T05:07:03;1013.05;;;7.50;60.51
54144;BME280;40050;47.324;18.792;2023-03-01T05:09:04;1013.10;;;7.49;60.52
54144;BME280;40050;47.324;18.792;2023-03-01T05:11:05;1013.13;;;7.49;60.51
54144;BME280;40050;47.324;18.792;2023-03-01T05:13:07;1013.09;;;7.46;60.52
54144;BME280;40050;47.324;18.792;2023-03-01T05:15:08;1013.08;;;7.47;60.38
54144;BME280;40050;47.324;18.792;2023-03-01T05:17:09;1013.03;;;7.48;60.38
54144;BME280;40050;47.324;18.792;2023-03-01T05:19:10;1013.06;;;7.49;60.32
54144;BME280;40050;47.324;18.792;2023-03-01T05:21:12;1013.11;;;7.51;60.35
54144;BME280;40050;47.324;18.792;2023-03-01T05:23:13;1013.05;;;7.44;60.19
54144;BME280;40050;47.324;18.792;2023-03-01T05:25:14;1013.14;;;7.51;59.90
54144;BME280;40050;47.324;18.792;2023-03-01T05:27:15;1013.06;;;7.49;59.83
54144;BME280;40050;47.324;18.792;2023-03-01T05:29:16;1013.09;;;7.52;59.82
54144;BME280;40050;47.324;18.792;2023-03-01T05:31:17;1013.06;;;7.52;59.66
54144;BME280;40050;47.324;18.792;2023-03-01T05:33:18;1013.03;;;7.51;59.33
54144;BME280;40050;47.324;18.792;2023-03-01T05:35:19;1013.07;;;7.49;59.40
54144;BME280;40050;47.324;18.792;2023-03-01T05:37:20;1013.05;;;7.48;59.16
54144;BME280;40050;47.324;18.792;2023-03-01T05:39:21;1013.08;;;7.49;58.55
54144;BME280;40050;47.324;18.792;2023-03-01T05:41:23;1013.08;;;7.47;58.64
54144;BME280;40050;47.324;18.792;2023-03-01T05:43:23;1012.80;;;7.29;58.17
54144;BME280;40050;47.324;18.792;2023-03-01T05:45:25;1013.20;;;7.52;58.15
54144;BME280;40050;47.324;18.792;2023-03-01T05:47:26;1013.18;;;7.50;57.87
54144;BME280;40050;47.324;18.792;2023-03-01T05:49:27;1013.20;;;7.51;57.46
54144;BME280;40050;47.324;18.792;2023-03-01T05:51:28;1013.20;;;7.53;57.42
54144;BME280;40050;47.324;18.792;2023-03-01T05:53:29;1013.21;;;7.55;57.67
54144;BME280;40050;47.324;18.792;2023-03-01T05:55:30;1013.23;;;7.57;57.93
54144;BME280;40050;47.324;18.792;2023-03-01T05:57:31;1013.24;;;7.55;57.94
54144;BME280;40050;47.324;18.792;2023-03-01T05:59:32;1013.24;;;7.54;57.77
54144;BME280;40050;47.324;18.792;2023-03-01T06:01:33;1013.27;;;7.56;57.47
54144;BME280;40050;47.324;18.792;2023-03-01T06:03:34;1013.28;;;7.53;57.41
54144;BME280;40050;47.324;18.792;2023-03-01T06:05:35;1013.30;;;7.53;57.57
54144;BME280;40050;47.324;18.792;2023-03-01T06:07:38;1013.30;;;7.58;58.27
54144;BME280;40050;47.324;18.792;2023-03-01T06:09:39;1013.37;;;7.60;57.62
54144;BME280;40050;47.324;18.792;2023-03-01T06:11:40;1013.35;;;7.59;57.02
54144;BME280;40050;47.324;18.792;2023-03-01T06:13:42;1013.37;;;7.63;57.26
54144;BME280;40050;47.324;18.792;2023-03-01T06:15:42;1013.40;;;7.64;57.63
54144;BME280;40050;47.324;18.792;2023-03-01T06:17:44;1013.41;;;7.62;57.72
54144;BME280;40050;47.324;18.792;2023-03-01T06:19:46;1013.40;;;7.66;57.83
54144;BME280;40050;47.324;18.792;2023-03-01T06:21:47;1013.44;;;7.66;57.89
54144;BME280;40050;47.324;18.792;2023-03-01T06:23:47;1013.36;;;7.68;57.83
54144;BME280;40050;47.324;18.792;2023-03-01T06:25:49;1013.30;;;7.71;57.87
54144;BME280;40050;47.324;18.792;2023-03-01T06:27:50;1013.18;;;7.66;58.59
54144;BME280;40050;47.324;18.792;2023-03-01T06:29:51;1013.23;;;7.73;58.97
54144;BME280;40050;47.324;18.792;2023-03-01T06:31:52;1013.30;;;7.75;59.48
54144;BME280;40050;47.324;18.792;2023-03-01T06:33:53;1013.34;;;7.73;59.15
54144;BME280;40050;47.324;18.792;2023-03-01T06:35:55;1013.34;;;7.74;58.92
54144;BME280;40050;47.324;18.792;2023-03-01T06:37:56;1013.36;;;7.76;58.68
54144;BME280;40050;47.324;18.792;2023-03-01T06:39:57;1013.40;;;7.79;58.57
54144;BME280;40050;47.324;18.792;2023-03-01T06:41:58;1013.39;;;7.82;58.24
54144;BME280;40050;47.324;18.792;2023-03-01T06:43:59;1013.40;;;7.84;58.07
54144;BME280;40050;47.324;18.792;2023-03-01T06:46:00;1013.39;;;7.86;57.75
54144;BME280;40050;47.324;18.792;2023-03-01T06:48:01;1013.45;;;7.87;57.80
54144;BME280;40050;47.324;18.792;2023-03-01T06:50:02;1013.43;;;7.89;57.65
54144;BME280;40050;47.324;18.792;2023-03-01T06:52:03;1013.21;;;7.90;57.66
54144;BME280;40050;47.324;18.792;2023-03-01T06:54:04;1013.38;;;7.86;57.73
54144;BME280;40050;47.324;18.792;2023-03-01T06:56:05;1013.46;;;7.95;57.48
54144;BME280;40050;47.324;18.792;2023-03-01T06:58:06;1013.46;;;7.92;57.67
54144;BME280;40050;47.324;18.792;2023-03-01T07:00:08;1013.50;;;7.96;57.39
54144;BME280;40050;47.324;18.792;2023-03-01T07:02:12;1013.51;;;7.93;57.29
54144;BME280;40050;47.324;18.792;2023-03-01T07:04:13;1013.50;;;7.96;57.40
54144;BME280;40050;47.324;18.792;2023-03-01T07:06:14;1013.52;;;7.99;57.33
54144;BME280;40050;47.324;18.792;2023-03-01T07:08:15;1013.50;;;8.02;57.08
54144;BME280;40050;47.324;18.792;2023-03-01T07:10:16;1013.50;;;8.02;57.23
54144;BME280;40050;47.324;18.792;2023-03-01T07:12:17;1013.49;;;8.02;56.84
54144;BME280;40050;47.324;18.792;2023-03-01T07:14:18;1013.45;;;8.03;56.72
54144;BME280;40050;47.324;18.792;2023-03-01T07:16:19;1013.36;;;7.96;56.86
54144;BME280;40050;47.324;18.792;2023-03-01T07:18:19;1013.42;;;8.07;56.50
54144;BME280;40050;47.324;18.792;2023-03-01T07:20:20;1013.49;;;8.12;55.93
54144;BME280;40050;47.324;18.792;2023-03-01T07:22:21;1013.47;;;8.13;56.20
54144;BME280;40050;47.324;18.792;2023-03-01T07:24:22;1013.44;;;8.15;55.73
54144;BME280;40050;47.324;18.792;2023-03-01T07:26:23;1013.46;;;8.16;55.75
54144;BME280;40050;47.324;18.792;2023-03-01T07:28:24;1013.46;;;8.17;55.89
54144;BME280;40050;47.324;18.792;2023-03-01T07:30:25;1013.46;;;8.24;55.54
54144;BME280;40050;47.324;18.792;2023-03-01T07:32:26;1013.37;;;8.24;55.58
54144;BME280;40050;47.324;18.792;2023-03-01T07:34:27;1013.45;;;8.27;55.29
54144;BME280;40050;47.324;18.792;2023-03-01T07:36:28;1013.47;;;8.27;55.28
54144;BME280;40050;47.324;18.792;2023-03-01T07:38:29;1013.48;;;8.24;55.27
54144;BME280;40050;47.324;18.792;2023-03-01T07:40:30;1013.51;;;8.34;54.80
54144;BME280;40050;47.324;18.792;2023-03-01T07:42:31;1013.45;;;8.31;54.31
54144;BME280;40050;47.324;18.792;2023-03-01T07:44:32;1013.43;;;8.34;54.65
54144;BME280;40050;47.324;18.792;2023-03-01T07:46:33;1013.42;;;8.33;54.00
54144;BME280;40050;47.324;18.792;2023-03-01T07:48:34;1013.41;;;8.37;54.18
54144;BME280;40050;47.324;18.792;2023-03-01T07:50:35;1013.37;;;8.34;54.14
54144;BME280;40050;47.324;18.792;2023-03-01T07:52:36;1013.40;;;8.34;54.63
54144;BME280;40050;47.324;18.792;2023-03-01T07:54:37;1013.34;;;8.31;54.93
54144;BME280;40050;47.324;18.792;2023-03-01T07:56:38;1013.37;;;8.36;54.97
54144;BME280;40050;47.324;18.792;2023-03-01T07:58:40;1013.38;;;8.42;54.99
54144;BME280;40050;47.324;18.792;2023-03-01T08:00:41;1013.33;;;8.42;54.74
54144;BME280;40050;47.324;18.792;2023-03-01T08:02:42;1013.38;;;8.50;54.77
54144;BME280;40050;47.324;18.792;2023-03-01T08:04:43;1013.38;;;8.55;54.39
54144;BME280;40050;47.324;18.792;2023-03-01T08:06:44;1013.37;;;8.60;54.24
54144;BME280;40050;47.324;18.792;2023-03-01T08:08:45;1013.34;;;8.70;54.11
54144;BME280;40050;47.324;18.792;2023-03-01T08:10:46;1013.32;;;8.74;53.83
54144;BME280;40050;47.324;18.792;2023-03-01T08:12:47;1013.37;;;8.73;53.45
54144;BME280;40050;47.324;18.792;2023-03-01T08:14:47;1013.42;;;8.72;53.89
54144;BME280;40050;47.324;18.792;2023-03-01T08:16:49;1013.37;;;8.78;53.59
54144;BME280;40050;47.324;18.792;2023-03-01T08:18:50;1013.27;;;8.80;53.46
54144;BME280;40050;47.324;18.792;2023-03-01T08:20:51;1013.34;;;8.84;53.11
54144;BME280;40050;47.324;18.792;2023-03-01T08:22:52;1013.26;;;8.87;52.92
54144;BME280;40050;47.324;18.792;2023-03-01T08:24:53;1013.29;;;8.89;53.01
54144;BME280;40050;47.324;18.792;2023-03-01T08:26:54;1013.20;;;8.86;52.89
54144;BME280;40050;47.324;18.792;2023-03-01T08:28:55;1013.25;;;8.93;52.62
54144;BME280;40050;47.324;18.792;2023-03-01T08:30:56;1013.28;;;8.91;52.34
54144;BME280;40050;47.324;18.792;2023-03-01T08:32:57;1013.34;;;8.92;52.57
54144;BME280;40050;47.324;18.792;2023-03-01T08:34:58;1013.39;;;8.96;52.70
54144;BME280;40050;47.324;18.792;2023-03-01T08:36:59;1013.34;;;9.02;52.05
54144;BME280;40050;47.324;18.792;2023-03-01T08:39:00;1013.34;;;9.07;51.97
54144;BME280;40050;47.324;18.792;2023-03-01T08:41:02;1013.25;;;9.09;52.05
54144;BME280;40050;47.324;18.792;2023-03-01T08:43:03;1013.28;;;9.16;51.38
54144;BME280;40050;47.324;18.792;2023-03-01T08:45:04;1013.30;;;9.15;51.87
54144;BME280;40050;47.324;18.792;2023-03-01T08:47:05;1013.26;;;9.17;51.57
54144;BME280;40050;47.324;18.792;2023-03-01T08:49:06;1013.29;;;9.23;50.93
54144;BME280;40050;47.324;18.792;2023-03-01T08:51:14;1013.17;;;9.20;50.89
54144;BME280;40050;47.324;18.792;2023-03-01T08:53:16;1013.18;;;9.25;51.06
54144;BME280;40050;47.324;18.792;2023-03-01T08:55:17;1013.17;;;9.30;50.80
54144;BME280;40050;47.324;18.792;2023-03-01T08:57:18;1013.17;;;9.33;50.67
54144;BME280;40050;47.324;18.792;2023-03-01T08:59:19;1013.10;;;9.35;50.85
54144;BME280;40050;47.324;18.792;2023-03-01T09:01:20;1013.05;;;9.40;50.30
54144;BME280;40050;47.324;18.792;2023-03-01T09:03:21;1013.09;;;9.44;50.16
54144;BME280;40050;47.324;18.792;2023-03-01T09:05:21;1013.03;;;9.48;50.28
54144;BME280;40050;47.324;18.792;2023-03-01T09:07:22;1013.06;;;9.57;50.30
54144;BME280;40050;47.324;18.792;2023-03-01T09:09:23;1013.00;;;9.62;49.62
54144;BME280;40050;47.324;18.792;2023-03-01T09:11:24;1012.90;;;9.65;49.56
54144;BME280;40050;47.324;18.792;2023-03-01T09:13:27;1012.89;;;9.68;49.14
54144;BME280;40050;47.324;18.792;2023-03-01T09:15:28;1012.84;;;9.65;49.97
54144;BME280;40050;47.324;18.792;2023-03-01T09:17:29;1012.84;;;9.70;49.35
54144;BME280;40050;47.324;18.792;2023-03-01T09:19:30;1012.60;;;9.62;49.24
54144;BME280;40050;47.324;18.792;2023-03-01T09:21:31;1012.66;;;9.74;49.03
54144;BME280;40050;47.324;18.792;2023-03-01T09:23:32;1012.70;;;9.82;48.57
54144;BME280;40050;47.324;18.792;2023-03-01T09:25:33;1012.66;;;9.84;48.76
54144;BME280;40050;47.324;18.792;2023-03-01T09:27:34;1012.62;;;9.95;49.21
54144;BME280;40050;47.324;18.792;2023-03-01T09:29:36;1012.61;;;10.05;49.03
54144;BME280;40050;47.324;18.792;2023-03-01T09:31:37;1012.38;;;9.98;49.16
54144;BME280;40050;47.324;18.792;2023-03-01T09:33:38;1012.57;;;10.20;49.23
54144;BME280;40050;47.324;18.792;2023-03-01T09:35:40;1012.53;;;10.29;49.09
54144;BME280;40050;47.324;18.792;2023-03-01T09:37:41;1012.46;;;10.38;48.28
54144;BME280;40050;47.324;18.792;2023-03-01T09:39:42;1012.53;;;10.46;48.29
54144;BME280;40050;47.324;18.792;2023-03-01T09:41:47;1012.49;;;10.51;48.05
54144;BME280;40050;47.324;18.792;2023-03-01T09:43:50;1012.46;;;10.57;48.15
54144;BME280;40050;47.324;18.792;2023-03-01T09:45:53;1012.42;;;10.70;48.11
54144;BME280;40050;47.324;18.792;2023-03-01T09:47:55;1012.39;;;10.73;47.22
54144;BME280;40050;47.324;18.792;2023-03-01T09:50:06;1012.35;;;10.78;47.13
54144;BME280;40050;47.324;18.792;2023-03-01T09:52:20;1012.36;;;10.78;47.14
54144;BME280;40050;47.324;18.792;2023-03-01T09:54:21;1012.38;;;10.85;46.75
54144;BME280;40050;47.324;18.792;2023-03-01T09:58:41;1012.39;;;10.93;47.34
54144;BME280;40050;47.324;18.792;2023-03-01T10:00:47;1012.37;;;11.00;47.53
54144;BME280;40050;47.324;18.792;2023-03-01T10:02:57;1012.28;;;11.15;47.52
54144;BME280;40050;47.324;18.792;2023-03-01T10:07:21;1012.27;;;11.44;47.00
54144;BME280;40050;47.324;18.792;2023-03-01T10:09:27;1012.16;;;11.57;46.45
54144;BME280;40050;47.324;18.792;2023-03-01T10:11:31;1012.08;;;11.70;46.65
54144;BME280;40050;47.324;18.792;2023-03-01T10:13:44;1012.12;;;11.84;46.47
54144;BME280;40050;47.324;18.792;2023-03-01T10:18:16;1012.10;;;12.13;45.91
54144;BME280;40050;47.324;18.792;2023-03-01T10:20:25;1012.14;;;12.25;46.03
54144;BME280;40050;47.324;18.792;2023-03-01T10:22:29;1012.11;;;12.35;46.03
54144;BME280;40050;47.324;18.792;2023-03-01T10:24:32;1012.08;;;12.41;46.19
54144;BME280;40050;47.324;18.792;2023-03-01T10:26:38;1011.96;;;12.49;45.65
54144;BME280;40050;47.324;18.792;2023-03-01T10:28:47;1011.97;;;12.59;45.39
54144;BME280;40050;47.324;18.792;2023-03-01T10:30:50;1011.99;;;12.68;45.29
54144;BME280;40050;47.324;18.792;2023-03-01T10:32:52;1012.04;;;12.77;44.79
54144;BME280;40050;47.324;18.792;2023-03-01T10:34:54;1012.01;;;12.80;44.79
54144;BME280;40050;47.324;18.792;2023-03-01T10:36:56;1011.97;;;12.88;44.32
54144;BME280;40050;47.324;18.792;2023-03-01T10:38:57;1011.99;;;13.02;44.73
54144;BME280;40050;47.324;18.792;2023-03-01T10:41:05;1011.96;;;13.06;43.94
54144;BME280;40050;47.324;18.792;2023-03-01T10:43:10;1011.92;;;13.04;43.70
54144;BME280;40050;47.324;18.792;2023-03-01T10:47:27;1011.84;;;13.08;43.56
54144;BME280;40050;47.324;18.792;2023-03-01T10:49:28;1011.75;;;13.08;43.01
54144;BME280;40050;47.324;18.792;2023-03-01T10:51:29;1011.78;;;13.04;43.43
54144;BME280;40050;47.324;18.792;2023-03-01T10:54:03;1011.76;;;13.14;43.47
54144;BME280;40050;47.324;18.792;2023-03-01T10:55:56;1011.75;;;13.13;43.16
54144;BME280;40050;47.324;18.792;2023-03-01T11:00:20;1011.71;;;13.18;43.38
54144;BME280;40050;47.324;18.792;2023-03-01T11:02:30;1011.69;;;13.22;43.11
54144;BME280;40050;47.324;18.792;2023-03-01T11:04:31;1011.68;;;13.18;43.38
54144;BME280;40050;47.324;18.792;2023-03-01T11:06:33;1011.65;;;13.28;43.23
54144;BME280;40050;47.324;18.792;2023-03-01T11:08:35;1011.69;;;13.19;43.45
54144;BME280;40050;47.324;18.792;2023-03-01T11:10:36;1011.61;;;13.19;42.80